sensor_id;sensor_type;location;lat;lon;timestamp;P1;durP1;ratioP1;P2;durP2;ratioP2
1204;SDS011;592;48.764;9.174;2022-08-21T00:00:54;5.70;;;3.00;;
1204;SDS011;592;48.764;9.174;2022-08-21T00:03:21;5.90;;;2.63;;
1204;SDS011;592;48.764;9.174;2022-08-21T00:05:49;6.60;;;3.30;;
1204;SDS011;592;48.764;9.174;2022-08-21T00:08:18;5.43;;;3.10;;
1204;SDS011;592;48.764;9.174;2022-08-21T00:10:46;5.77;;;3.00;;
1204;SDS011;592;48.764;9.174;2022-08-21T00:13:14;6.30;;;3.37;;
1204;SDS011;592;48.764;9.174;2022-08-21T00:15:43;7.60;;;3.33;;
1204;SDS011;592;48.764;9.174;2022-08-21T00:18:10;5.77;;;2.80;;
1204;SDS011;592;48.764;9.174;2022-08-21T00:20:37;5.77;;;3.03;;
1204;SDS011;592;48.764;9.174;2022-08-21T00:23:05;6.50;;;3.40;;
1204;SDS011;592;48.764;9.174;2022-08-21T00:25:33;6.00;;;2.87;;
1204;SDS011;592;48.764;9.174;2022-08-21T00:28:00;5.70;;;3.03;;
1204;SDS011;592;48.764;9.174;2022-08-21T00:30:28;5.40;;;2.90;;
1204;SDS011;592;48.764;9.174;2022-08-21T00:32:56;7.27;;;3.10;;
1204;SDS011;592;48.764;9.174;2022-08-21T00:35:26;5.30;;;2.97;;
1204;SDS011;592;48.764;9.174;2022-08-21T00:37:54;6.30;;;3.23;;
1204;SDS011;592;48.764;9.174;2022-08-21T00:40:22;5.53;;;2.83;;
1204;SDS011;592;48.764;9.174;2022-08-21T00:42:52;6.80;;;3.03;;
1204;SDS011;592;48.764;9.174;2022-08-21T00:45:19;6.00;;;3.20;;
1204;SDS011;592;48.764;9.174;2022-08-21T00:47:46;6.13;;;3.33;;
1204;SDS011;592;48.764;9.174;2022-08-21T00:50:13;5.60;;;3.10;;
1204;SDS011;592;48.764;9.174;2022-08-21T00:52:40;9.27;;;3.30;;
1204;SDS011;592;48.764;9.174;2022-08-21T00:55:09;5.67;;;2.90;;
1204;SDS011;592;48.764;9.174;2022-08-21T00:57:38;7.27;;;3.47;;
1204;SDS011;592;48.764;9.174;2022-08-21T01:00:11;8.07;;;3.00;;
1204;SDS011;592;48.764;9.174;2022-08-21T01:02:41;5.13;;;3.27;;
1204;SDS011;592;48.764;9.174;2022-08-21T01:05:08;7.97;;;3.17;;
1204;SDS011;592;48.764;9.174;2022-08-21T01:07:36;7.77;;;3.30;;
1204;SDS011;592;48.764;9.174;2022-08-21T01:10:04;13.40;;;3.47;;
1204;SDS011;592;48.764;9.174;2022-08-21T01:12:32;6.90;;;3.20;;
1204;SDS011;592;48.764;9.174;2022-08-21T01:15:00;6.67;;;3.47;;
1204;SDS011;592;48.764;9.174;2022-08-21T01:17:30;5.40;;;3.40;;
1204;SDS011;592;48.764;9.174;2022-08-21T01:19:58;7.53;;;3.50;;
1204;SDS011;592;48.764;9.174;2022-08-21T01:22:26;5.70;;;3.23;;
1204;SDS011;592;48.764;9.174;2022-08-21T01:24:53;5.33;;;3.20;;
1204;SDS011;592;48.764;9.174;2022-08-21T01:27:20;6.53;;;3.30;;
1204;SDS011;592;48.764;9.174;2022-08-21T01:29:48;6.83;;;2.87;;
1204;SDS011;592;48.764;9.174;2022-08-21T01:32:20;9.50;;;3.93;;
1204;SDS011;592;48.764;9.174;2022-08-21T01:34:48;5.90;;;2.97;;
1204;SDS011;592;48.764;9.174;2022-08-21T01:37:16;8.63;;;3.67;;
1204;SDS011;592;48.764;9.174;2022-08-21T01:39:45;6.70;;;3.23;;
1204;SDS011;592;48.764;9.174;2022-08-21T01:42:13;6.20;;;3.20;;
1204;SDS011;592;48.764;9.174;2022-08-21T01:44:41;5.93;;;3.13;;
1204;SDS011;592;48.764;9.174;2022-08-21T01:47:10;7.43;;;3.10;;
1204;SDS011;592;48.764;9.174;2022-08-21T01:49:38;6.97;;;3.10;;
1204;SDS011;592;48.764;9.174;2022-08-21T01:52:06;6.33;;;3.63;;
1204;SDS011;592;48.764;9.174;2022-08-21T01:54:34;7.97;;;3.43;;
1204;SDS011;592;48.764;9.174;2022-08-21T01:57:03;8.07;;;3.00;;
1204;SDS011;592;48.764;9.174;2022-08-21T01:59:31;8.57;;;3.40;;
1204;SDS011;592;48.764;9.174;2022-08-21T02:01:58;6.30;;;2.93;;
1204;SDS011;592;48.764;9.174;2022-08-21T02:04:25;8.33;;;3.67;;
1204;SDS011;592;48.764;9.174;2022-08-21T02:06:52;8.20;;;3.50;;
1204;SDS011;592;48.764;9.174;2022-08-21T02:09:19;8.90;;;3.47;;
1204;SDS011;592;48.764;9.174;2022-08-21T02:11:47;6.50;;;3.33;;
1204;SDS011;592;48.764;9.174;2022-08-21T02:14:15;6.03;;;3.13;;
1204;SDS011;592;48.764;9.174;2022-08-21T02:16:42;6.57;;;3.30;;
1204;SDS011;592;48.764;9.174;2022-08-21T02:19:10;5.80;;;3.10;;
1204;SDS011;592;48.764;9.174;2022-08-21T02:21:40;7.60;;;3.40;;
1204;SDS011;592;48.764;9.174;2022-08-21T02:24:07;5.60;;;3.30;;
1204;SDS011;592;48.764;9.174;2022-08-21T02:26:35;6.10;;;3.37;;
1204;SDS011;592;48.764;9.174;2022-08-21T02:29:02;7.70;;;3.70;;
1204;SDS011;592;48.764;9.174;2022-08-21T02:31:31;6.80;;;3.20;;
1204;SDS011;592;48.764;9.174;2022-08-21T02:33:58;6.60;;;3.40;;
1204;SDS011;592;48.764;9.174;2022-08-21T02:36:25;6.37;;;3.30;;
1204;SDS011;592;48.764;9.174;2022-08-21T02:38:51;5.50;;;3.23;;
1204;SDS011;592;48.764;9.174;2022-08-21T02:41:19;7.93;;;3.60;;
1204;SDS011;592;48.764;9.174;2022-08-21T02:43:47;7.20;;;3.27;;
1204;SDS011;592;48.764;9.174;2022-08-21T02:46:14;6.20;;;3.10;;
1204;SDS011;592;48.764;9.174;2022-08-21T02:48:44;6.13;;;3.40;;
1204;SDS011;592;48.764;9.174;2022-08-21T02:51:12;8.70;;;3.33;;
1204;SDS011;592;48.764;9.174;2022-08-21T02:53:40;8.27;;;3.33;;
1204;SDS011;592;48.764;9.174;2022-08-21T02:56:08;8.90;;;3.90;;
1204;SDS011;592;48.764;9.174;2022-08-21T02:58:38;6.13;;;3.63;;
1204;SDS011;592;48.764;9.174;2022-08-21T03:01:07;7.23;;;3.70;;
1204;SDS011;592;48.764;9.174;2022-08-21T03:03:35;6.67;;;3.50;;
1204;SDS011;592;48.764;9.174;2022-08-21T03:06:03;6.17;;;3.70;;
1204;SDS011;592;48.764;9.174;2022-08-21T03:08:31;7.37;;;4.10;;
1204;SDS011;592;48.764;9.174;2022-08-21T03:10:57;5.17;;;2.97;;
1204;SDS011;592;48.764;9.174;2022-08-21T03:13:25;6.23;;;3.80;;
1204;SDS011;592;48.764;9.174;2022-08-21T03:15:53;7.70;;;3.43;;
1204;SDS011;592;48.764;9.174;2022-08-21T03:18:20;7.17;;;3.70;;
1204;SDS011;592;48.764;9.174;2022-08-21T03:20:47;6.83;;;3.70;;
1204;SDS011;592;48.764;9.174;2022-08-21T03:23:16;10.70;;;3.13;;
1204;SDS011;592;48.764;9.174;2022-08-21T03:25:44;9.07;;;4.43;;
1204;SDS011;592;48.764;9.174;2022-08-21T03:28:12;8.03;;;3.43;;
1204;SDS011;592;48.764;9.174;2022-08-21T03:30:41;9.10;;;3.93;;
1204;SDS011;592;48.764;9.174;2022-08-21T03:33:08;8.67;;;3.30;;
1204;SDS011;592;48.764;9.174;2022-08-21T03:35:35;6.30;;;4.03;;
1204;SDS011;592;48.764;9.174;2022-08-21T03:38:02;7.97;;;3.90;;
1204;SDS011;592;48.764;9.174;2022-08-21T03:40:30;5.77;;;3.77;;
1204;SDS011;592;48.764;9.174;2022-08-21T03:42:57;8.03;;;3.57;;
1204;SDS011;592;48.764;9.174;2022-08-21T03:45:24;6.70;;;3.53;;
1204;SDS011;592;48.764;9.174;2022-08-21T03:47:52;9.00;;;4.03;;
1204;SDS011;592;48.764;9.174;2022-08-21T03:50:20;5.90;;;3.37;;
1204;SDS011;592;48.764;9.174;2022-08-21T03:52:47;6.50;;;3.90;;
1204;SDS011;592;48.764;9.174;2022-08-21T03:55:14;7.00;;;3.60;;
1204;SDS011;592;48.764;9.174;2022-08-21T03:57:42;7.23;;;3.63;;
1204;SDS011;592;48.764;9.174;2022-08-21T04:00:10;6.20;;;3.90;;
1204;SDS011;592;48.764;9.174;2022-08-21T04:02:38;7.80;;;4.17;;
1204;SDS011;592;48.764;9.174;2022-08-21T04:05:05;5.23;;;3.33;;
1204;SDS011;592;48.764;9.174;2022-08-21T04:07:33;6.80;;;4.20;;
1204;SDS011;592;48.764;9.174;2022-08-21T04:10:00;7.53;;;3.90;;
1204;SDS011;592;48.764;9.174;2022-08-21T04:12:27;6.83;;;3.67;;
1204;SDS011;592;48.764;9.174;2022-08-21T04:14:55;6.83;;;3.70;;
1204;SDS011;592;48.764;9.174;2022-08-21T04:17:21;9.27;;;4.13;;
1204;SDS011;592;48.764;9.174;2022-08-21T04:19:48;7.57;;;4.27;;
1204;SDS011;592;48.764;9.174;2022-08-21T04:22:15;8.00;;;3.70;;
1204;SDS011;592;48.764;9.174;2022-08-21T04:24:42;6.80;;;3.83;;
1204;SDS011;592;48.764;9.174;2022-08-21T04:27:09;6.10;;;3.80;;
1204;SDS011;592;48.764;9.174;2022-08-21T04:29:36;7.60;;;3.53;;
1204;SDS011;592;48.764;9.174;2022-08-21T04:32:04;6.93;;;3.87;;
1204;SDS011;592;48.764;9.174;2022-08-21T04:34:31;6.77;;;3.93;;
1204;SDS011;592;48.764;9.174;2022-08-21T04:36:58;7.90;;;4.10;;
1204;SDS011;592;48.764;9.174;2022-08-21T04:39:25;8.43;;;3.93;;
1204;SDS011;592;48.764;9.174;2022-08-21T04:41:51;12.10;;;4.20;;
1204;SDS011;592;48.764;9.174;2022-08-21T04:44:18;6.20;;;3.70;;
1204;SDS011;592;48.764;9.174;2022-08-21T04:46:45;7.63;;;4.60;;
1204;SDS011;592;48.764;9.174;2022-08-21T04:49:13;7.63;;;3.93;;
1204;SDS011;592;48.764;9.174;2022-08-21T04:51:40;9.20;;;4.37;;
1204;SDS011;592;48.764;9.174;2022-08-21T04:54:09;7.23;;;4.27;;
1204;SDS011;592;48.764;9.174;2022-08-21T04:56:41;6.93;;;4.13;;
1204;SDS011;592;48.764;9.174;2022-08-21T04:59:12;7.37;;;3.90;;
1204;SDS011;592;48.764;9.174;2022-08-21T05:01:41;8.03;;;4.13;;
1204;SDS011;592;48.764;9.174;2022-08-21T05:04:10;7.40;;;3.90;;
1204;SDS011;592;48.764;9.174;2022-08-21T05:06:41;9.77;;;4.40;;
1204;SDS011;592;48.764;9.174;2022-08-21T05:09:11;7.20;;;3.80;;
1204;SDS011;592;48.764;9.174;2022-08-21T05:11:40;7.80;;;3.90;;
1204;SDS011;592;48.764;9.174;2022-08-21T05:14:08;9.57;;;3.93;;
1204;SDS011;592;48.764;9.174;2022-08-21T05:16:35;10.43;;;4.40;;
1204;SDS011;592;48.764;9.174;2022-08-21T05:19:02;7.50;;;3.90;;
1204;SDS011;592;48.764;9.174;2022-08-21T05:21:30;9.57;;;4.40;;
1204;SDS011;592;48.764;9.174;2022-08-21T05:23:56;5.70;;;3.67;;
1204;SDS011;592;48.764;9.174;2022-08-21T05:26:23;7.90;;;4.47;;
1204;SDS011;592;48.764;9.174;2022-08-21T05:28:50;9.23;;;4.77;;
1204;SDS011;592;48.764;9.174;2022-08-21T05:31:17;8.77;;;4.63;;
1204;SDS011;592;48.764;9.174;2022-08-21T05:33:43;7.87;;;4.10;;
1204;SDS011;592;48.764;9.174;2022-08-21T05:36:10;6.23;;;3.73;;
1204;SDS011;592;48.764;9.174;2022-08-21T05:38:38;10.17;;;4.07;;
1204;SDS011;592;48.764;9.174;2022-08-21T05:41:05;8.17;;;3.97;;
1204;SDS011;592;48.764;9.174;2022-08-21T05:43:32;8.47;;;4.10;;
1204;SDS011;592;48.764;9.174;2022-08-21T05:46:01;10.70;;;3.93;;
1204;SDS011;592;48.764;9.174;2022-08-21T05:48:29;8.43;;;4.27;;
1204;SDS011;592;48.764;9.174;2022-08-21T05:50:57;8.87;;;4.60;;
1204;SDS011;592;48.764;9.174;2022-08-21T05:53:24;11.30;;;4.37;;
1204;SDS011;592;48.764;9.174;2022-08-21T05:55:52;6.80;;;4.17;;
1204;SDS011;592;48.764;9.174;2022-08-21T05:58:19;7.63;;;3.33;;
1204;SDS011;592;48.764;9.174;2022-08-21T06:00:48;7.20;;;3.90;;
1204;SDS011;592;48.764;9.174;2022-08-21T06:03:16;7.00;;;4.20;;
1204;SDS011;592;48.764;9.174;2022-08-21T06:05:45;8.37;;;4.50;;
1204;SDS011;592;48.764;9.174;2022-08-21T06:08:13;8.50;;;4.20;;
1204;SDS011;592;48.764;9.174;2022-08-21T06:10:40;10.23;;;4.33;;
1204;SDS011;592;48.764;9.174;2022-08-21T06:13:09;7.87;;;4.00;;
1204;SDS011;592;48.764;9.174;2022-08-21T06:15:36;7.07;;;4.37;;
1204;SDS011;592;48.764;9.174;2022-08-21T06:18:03;7.47;;;3.77;;
1204;SDS011;592;48.764;9.174;2022-08-21T06:20:30;10.00;;;4.80;;
1204;SDS011;592;48.764;9.174;2022-08-21T06:22:57;6.80;;;3.83;;
1204;SDS011;592;48.764;9.174;2022-08-21T06:25:24;7.80;;;3.70;;
1204;SDS011;592;48.764;9.174;2022-08-21T06:27:51;7.77;;;4.40;;
1204;SDS011;592;48.764;9.174;2022-08-21T06:30:19;14.50;;;4.20;;
1204;SDS011;592;48.764;9.174;2022-08-21T06:32:46;7.87;;;4.00;;
1204;SDS011;592;48.764;9.174;2022-08-21T06:35:13;8.80;;;3.50;;
1204;SDS011;592;48.764;9.174;2022-08-21T06:37:39;6.27;;;3.40;;
1204;SDS011;592;48.764;9.174;2022-08-21T06:40:07;6.70;;;4.03;;
1204;SDS011;592;48.764;9.174;2022-08-21T06:42:34;6.83;;;3.97;;
1204;SDS011;592;48.764;9.174;2022-08-21T06:45:01;9.70;;;4.77;;
1204;SDS011;592;48.764;9.174;2022-08-21T06:47:29;9.37;;;3.93;;
1204;SDS011;592;48.764;9.174;2022-08-21T06:49:55;9.23;;;4.37;;
1204;SDS011;592;48.764;9.174;2022-08-21T06:52:22;7.63;;;4.63;;
1204;SDS011;592;48.764;9.174;2022-08-21T06:54:49;8.40;;;4.53;;
1204;SDS011;592;48.764;9.174;2022-08-21T06:57:16;7.20;;;4.40;;
1204;SDS011;592;48.764;9.174;2022-08-21T06:59:42;8.57;;;4.93;;
1204;SDS011;592;48.764;9.174;2022-08-21T07:02:09;8.30;;;4.87;;
1204;SDS011;592;48.764;9.174;2022-08-21T07:04:37;9.50;;;4.63;;
1204;SDS011;592;48.764;9.174;2022-08-21T07:07:04;11.20;;;4.80;;
1204;SDS011;592;48.764;9.174;2022-08-21T07:09:30;8.33;;;4.87;;
1204;SDS011;592;48.764;9.174;2022-08-21T07:11:57;10.33;;;5.30;;
1204;SDS011;592;48.764;9.174;2022-08-21T07:14:24;9.03;;;5.17;;
1204;SDS011;592;48.764;9.174;2022-08-21T07:16:51;9.77;;;4.73;;
1204;SDS011;592;48.764;9.174;2022-08-21T07:19:18;11.17;;;4.97;;
1204;SDS011;592;48.764;9.174;2022-08-21T07:21:46;10.07;;;4.83;;
1204;SDS011;592;48.764;9.174;2022-08-21T07:24:13;9.23;;;4.53;;
1204;SDS011;592;48.764;9.174;2022-08-21T07:26:40;11.00;;;4.80;;
1204;SDS011;592;48.764;9.174;2022-08-21T07:29:07;9.33;;;4.83;;
1204;SDS011;592;48.764;9.174;2022-08-21T07:31:34;10.67;;;5.10;;
1204;SDS011;592;48.764;9.174;2022-08-21T07:34:00;10.43;;;5.53;;
1204;SDS011;592;48.764;9.174;2022-08-21T07:36:27;11.30;;;5.10;;
1204;SDS011;592;48.764;9.174;2022-08-21T07:38:55;9.70;;;4.90;;
1204;SDS011;592;48.764;9.174;2022-08-21T07:41:23;9.23;;;5.17;;
1204;SDS011;592;48.764;9.174;2022-08-21T07:43:53;9.80;;;6.07;;
1204;SDS011;592;48.764;9.174;2022-08-21T07:46:20;8.40;;;5.33;;
1204;SDS011;592;48.764;9.174;2022-08-21T07:48:46;8.37;;;5.07;;
1204;SDS011;592;48.764;9.174;2022-08-21T07:51:14;8.67;;;4.70;;
1204;SDS011;592;48.764;9.174;2022-08-21T07:53:42;9.40;;;4.90;;
1204;SDS011;592;48.764;9.174;2022-08-21T07:56:16;9.43;;;5.10;;
1204;SDS011;592;48.764;9.174;2022-08-21T07:58:42;9.40;;;6.07;;
1204;SDS011;592;48.764;9.174;2022-08-21T08:01:09;7.50;;;4.80;;
1204;SDS011;592;48.764;9.174;2022-08-21T08:03:36;10.53;;;5.60;;
1204;SDS011;592;48.764;9.174;2022-08-21T08:06:04;10.90;;;5.63;;
1204;SDS011;592;48.764;9.174;2022-08-21T08:08:31;8.17;;;4.97;;
1204;SDS011;592;48.764;9.174;2022-08-21T08:10:58;8.47;;;5.40;;
1204;SDS011;592;48.764;9.174;2022-08-21T08:13:27;7.83;;;5.13;;
1204;SDS011;592;48.764;9.174;2022-08-21T08:15:54;10.07;;;5.47;;
1204;SDS011;592;48.764;9.174;2022-08-21T08:18:21;10.97;;;6.00;;
1204;SDS011;592;48.764;9.174;2022-08-21T08:20:47;8.50;;;5.33;;
1204;SDS011;592;48.764;9.174;2022-08-21T08:23:14;8.77;;;4.93;;
1204;SDS011;592;48.764;9.174;2022-08-21T08:25:41;8.47;;;4.50;;
1204;SDS011;592;48.764;9.174;2022-08-21T08:28:08;11.43;;;5.10;;
1204;SDS011;592;48.764;9.174;2022-08-21T08:30:36;10.60;;;4.80;;
1204;SDS011;592;48.764;9.174;2022-08-21T08:33:03;8.43;;;5.27;;
1204;SDS011;592;48.764;9.174;2022-08-21T08:35:29;8.07;;;5.13;;
1204;SDS011;592;48.764;9.174;2022-08-21T08:37:56;8.07;;;5.10;;
1204;SDS011;592;48.764;9.174;2022-08-21T08:40:25;7.80;;;4.97;;
1204;SDS011;592;48.764;9.174;2022-08-21T08:43:05;13.47;;;6.00;;
1204;SDS011;592;48.764;9.174;2022-08-21T08:45:33;9.13;;;4.83;;
1204;SDS011;592;48.764;9.174;2022-08-21T08:48:05;9.20;;;4.80;;
1204;SDS011;592;48.764;9.174;2022-08-21T08:50:38;7.50;;;4.40;;
1204;SDS011;592;48.764;9.174;2022-08-21T08:53:10;10.20;;;5.67;;
1204;SDS011;592;48.764;9.174;2022-08-21T08:55:41;9.00;;;5.40;;
1204;SDS011;592;48.764;9.174;2022-08-21T08:58:19;8.90;;;5.10;;
1204;SDS011;592;48.764;9.174;2022-08-21T09:00:51;8.33;;;5.07;;
1204;SDS011;592;48.764;9.174;2022-08-21T09:03:20;12.33;;;5.50;;
1204;SDS011;592;48.764;9.174;2022-08-21T09:05:49;12.20;;;5.23;;
1204;SDS011;592;48.764;9.174;2022-08-21T09:08:29;8.70;;;5.50;;
1204;SDS011;592;48.764;9.174;2022-08-21T09:11:07;8.07;;;4.73;;
1204;SDS011;592;48.764;9.174;2022-08-21T09:13:44;11.20;;;5.83;;
1204;SDS011;592;48.764;9.174;2022-08-21T09:16:18;9.40;;;5.10;;
1204;SDS011;592;48.764;9.174;2022-08-21T09:19:07;9.70;;;5.30;;
1204;SDS011;592;48.764;9.174;2022-08-21T09:21:41;9.00;;;4.77;;
1204;SDS011;592;48.764;9.174;2022-08-21T09:24:22;8.20;;;4.97;;
1204;SDS011;592;48.764;9.174;2022-08-21T09:26:58;9.10;;;5.17;;
1204;SDS011;592;48.764;9.174;2022-08-21T09:29:31;9.70;;;5.07;;
1204;SDS011;592;48.764;9.174;2022-08-21T09:32:03;9.43;;;4.80;;
1204;SDS011;592;48.764;9.174;2022-08-21T09:34:35;12.03;;;5.53;;
1204;SDS011;592;48.764;9.174;2022-08-21T09:37:02;11.73;;;5.33;;
1204;SDS011;592;48.764;9.174;2022-08-21T09:39:29;8.63;;;4.70;;
1204;SDS011;592;48.764;9.174;2022-08-21T09:41:59;10.23;;;5.07;;
1204;SDS011;592;48.764;9.174;2022-08-21T09:44:27;7.43;;;5.40;;
1204;SDS011;592;48.764;9.174;2022-08-21T09:46:56;8.03;;;4.90;;
1204;SDS011;592;48.764;9.174;2022-08-21T09:49:27;11.40;;;6.27;;
1204;SDS011;592;48.764;9.174;2022-08-21T09:51:55;12.40;;;5.40;;
1204;SDS011;592;48.764;9.174;2022-08-21T09:54:24;10.83;;;5.70;;
1204;SDS011;592;48.764;9.174;2022-08-21T09:56:56;10.03;;;5.00;;
1204;SDS011;592;48.764;9.174;2022-08-21T09:59:42;12.30;;;5.80;;
1204;SDS011;592;48.764;9.174;2022-08-21T10:02:22;10.53;;;5.87;;
1204;SDS011;592;48.764;9.174;2022-08-21T10:04:53;10.57;;;5.60;;
1204;SDS011;592;48.764;9.174;2022-08-21T10:07:23;8.00;;;4.77;;
1204;SDS011;592;48.764;9.174;2022-08-21T10:09:58;9.10;;;5.07;;
1204;SDS011;592;48.764;9.174;2022-08-21T10:12:28;11.17;;;4.90;;
1204;SDS011;592;48.764;9.174;2022-08-21T10:15:02;11.10;;;5.50;;
1204;SDS011;592;48.764;9.174;2022-08-21T10:17:36;9.40;;;4.60;;
1204;SDS011;592;48.764;9.174;2022-08-21T10:20:11;8.87;;;5.00;;
1204;SDS011;592;48.764;9.174;2022-08-21T10:22:45;8.87;;;5.37;;
1204;SDS011;592;48.764;9.174;2022-08-21T10:25:19;8.43;;;5.10;;
1204;SDS011;592;48.764;9.174;2022-08-21T10:27:53;8.33;;;5.37;;
1204;SDS011;592;48.764;9.174;2022-08-21T10:30:29;12.90;;;5.40;;
1204;SDS011;592;48.764;9.174;2022-08-21T10:33:07;11.27;;;5.60;;
1204;SDS011;592;48.764;9.174;2022-08-21T10:35:44;10.00;;;5.90;;
1204;SDS011;592;48.764;9.174;2022-08-21T10:41:23;7.33;;;5.00;;
1204;SDS011;592;48.764;9.174;2022-08-21T10:44:05;9.67;;;5.40;;
1204;SDS011;592;48.764;9.174;2022-08-21T10:46:42;8.60;;;5.40;;
1204;SDS011;592;48.764;9.174;2022-08-21T10:49:21;14.33;;;5.60;;
1204;SDS011;592;48.764;9.174;2022-08-21T10:51:56;7.47;;;5.37;;
1204;SDS011;592;48.764;9.174;2022-08-21T10:54:35;12.00;;;5.17;;
1204;SDS011;592;48.764;9.174;2022-08-21T10:57:10;9.87;;;5.70;;
1204;SDS011;592;48.764;9.174;2022-08-21T10:59:42;9.77;;;5.27;;
1204;SDS011;592;48.764;9.174;2022-08-21T11:02:15;9.43;;;5.80;;
1204;SDS011;592;48.764;9.174;2022-08-21T11:04:48;9.00;;;5.53;;
1204;SDS011;592;48.764;9.174;2022-08-21T11:07:25;11.43;;;5.23;;
1204;SDS011;592;48.764;9.174;2022-08-21T11:09:55;8.90;;;5.53;;
1204;SDS011;592;48.764;9.174;2022-08-21T11:12:25;9.33;;;5.97;;
1204;SDS011;592;48.764;9.174;2022-08-21T11:15:00;9.07;;;5.40;;
1204;SDS011;592;48.764;9.174;2022-08-21T11:17:32;9.20;;;5.17;;
1204;SDS011;592;48.764;9.174;2022-08-21T11:20:05;10.43;;;5.23;;
1204;SDS011;592;48.764;9.174;2022-08-21T11:22:40;8.53;;;4.90;;
1204;SDS011;592;48.764;9.174;2022-08-21T11:25:14;8.60;;;5.20;;
1204;SDS011;592;48.764;9.174;2022-08-21T11:27:46;7.87;;;4.57;;
1204;SDS011;592;48.764;9.174;2022-08-21T11:30:18;10.73;;;5.70;;
1204;SDS011;592;48.764;9.174;2022-08-21T11:32:52;10.07;;;5.10;;
1204;SDS011;592;48.764;9.174;2022-08-21T11:35:30;9.87;;;5.80;;
1204;SDS011;592;48.764;9.174;2022-08-21T11:38:13;9.90;;;5.57;;
1204;SDS011;592;48.764;9.174;2022-08-21T11:41:03;10.27;;;5.33;;
1204;SDS011;592;48.764;9.174;2022-08-21T11:43:40;10.50;;;5.67;;
1204;SDS011;592;48.764;9.174;2022-08-21T11:46:13;10.30;;;5.83;;
1204;SDS011;592;48.764;9.174;2022-08-21T11:48:49;10.33;;;5.40;;
1204;SDS011;592;48.764;9.174;2022-08-21T11:51:26;10.80;;;5.53;;
1204;SDS011;592;48.764;9.174;2022-08-21T11:53:59;8.30;;;5.00;;
1204;SDS011;592;48.764;9.174;2022-08-21T11:56:33;9.13;;;5.30;;
1204;SDS011;592;48.764;9.174;2022-08-21T11:59:04;9.50;;;5.77;;
1204;SDS011;592;48.764;9.174;2022-08-21T12:01:36;9.33;;;5.67;;
1204;SDS011;592;48.764;9.174;2022-08-21T12:04:08;8.40;;;4.90;;
1204;SDS011;592;48.764;9.174;2022-08-21T12:06:43;8.90;;;5.37;;
1204;SDS011;592;48.764;9.174;2022-08-21T12:09:27;9.40;;;5.10;;
1204;SDS011;592;48.764;9.174;2022-08-21T12:12:00;12.30;;;5.23;;
1204;SDS011;592;48.764;9.174;2022-08-21T12:14:35;7.70;;;5.00;;
1204;SDS011;592;48.764;9.174;2022-08-21T12:17:04;9.03;;;4.93;;
1204;SDS011;592;48.764;9.174;2022-08-21T12:19:31;7.43;;;5.17;;
1204;SDS011;592;48.764;9.174;2022-08-21T12:22:07;7.83;;;4.60;;
1204;SDS011;592;48.764;9.174;2022-08-21T12:24:37;9.43;;;5.80;;
1204;SDS011;592;48.764;9.174;2022-08-21T12:27:14;8.17;;;4.77;;
1204;SDS011;592;48.764;9.174;2022-08-21T12:29:58;9.13;;;4.73;;
1204;SDS011;592;48.764;9.174;2022-08-21T12:32:27;9.13;;;5.07;;
1204;SDS011;592;48.764;9.174;2022-08-21T12:34:57;12.93;;;5.33;;
1204;SDS011;592;48.764;9.174;2022-08-21T12:37:34;9.43;;;4.63;;
1204;SDS011;592;48.764;9.174;2022-08-21T12:40:10;10.27;;;5.07;;
1204;SDS011;592;48.764;9.174;2022-08-21T12:42:45;8.30;;;5.00;;
1204;SDS011;592;48.764;9.174;2022-08-21T12:45:19;8.40;;;4.90;;
1204;SDS011;592;48.764;9.174;2022-08-21T12:47:49;8.07;;;4.87;;
1204;SDS011;592;48.764;9.174;2022-08-21T12:50:29;10.63;;;5.30;;
1204;SDS011;592;48.764;9.174;2022-08-21T12:53:04;6.70;;;4.10;;
1204;SDS011;592;48.764;9.174;2022-08-21T12:55:35;11.50;;;5.30;;
1204;SDS011;592;48.764;9.174;2022-08-21T12:58:16;8.37;;;5.07;;
1204;SDS011;592;48.764;9.174;2022-08-21T13:00:47;8.77;;;5.03;;
1204;SDS011;592;48.764;9.174;2022-08-21T13:03:16;9.10;;;5.00;;
1204;SDS011;592;48.764;9.174;2022-08-21T13:05:43;7.60;;;4.40;;
1204;SDS011;592;48.764;9.174;2022-08-21T13:08:10;9.50;;;5.10;;
1204;SDS011;592;48.764;9.174;2022-08-21T13:10:40;8.77;;;4.83;;
1204;SDS011;592;48.764;9.174;2022-08-21T13:13:09;8.77;;;4.80;;
1204;SDS011;592;48.764;9.174;2022-08-21T13:15:42;9.47;;;5.17;;
1204;SDS011;592;48.764;9.174;2022-08-21T13:18:18;7.43;;;4.20;;
1204;SDS011;592;48.764;9.174;2022-08-21T13:20:47;11.80;;;5.03;;
1204;SDS011;592;48.764;9.174;2022-08-21T13:23:18;8.73;;;4.70;;
1204;SDS011;592;48.764;9.174;2022-08-21T13:25:50;9.03;;;4.30;;
1204;SDS011;592;48.764;9.174;2022-08-21T13:28:17;6.90;;;4.50;;
1204;SDS011;592;48.764;9.174;2022-08-21T13:30:45;8.63;;;4.87;;
1204;SDS011;592;48.764;9.174;2022-08-21T13:33:14;12.67;;;5.10;;
1204;SDS011;592;48.764;9.174;2022-08-21T13:35:47;9.63;;;4.93;;
1204;SDS011;592;48.764;9.174;2022-08-21T13:38:16;8.70;;;5.40;;
1204;SDS011;592;48.764;9.174;2022-08-21T13:40:46;13.70;;;5.17;;
1204;SDS011;592;48.764;9.174;2022-08-21T13:43:20;8.57;;;5.40;;
1204;SDS011;592;48.764;9.174;2022-08-21T13:45:52;8.03;;;4.80;;
1204;SDS011;592;48.764;9.174;2022-08-21T13:48:20;9.53;;;5.17;;
1204;SDS011;592;48.764;9.174;2022-08-21T13:50:48;7.30;;;4.67;;
1204;SDS011;592;48.764;9.174;2022-08-21T13:53:20;7.90;;;4.80;;
1204;SDS011;592;48.764;9.174;2022-08-21T13:55:50;8.83;;;5.20;;
1204;SDS011;592;48.764;9.174;2022-08-21T13:58:24;8.23;;;4.40;;
1204;SDS011;592;48.764;9.174;2022-08-21T14:00:52;8.10;;;4.57;;
1204;SDS011;592;48.764;9.174;2022-08-21T14:03:27;7.50;;;4.93;;
1204;SDS011;592;48.764;9.174;2022-08-21T14:05:57;7.10;;;4.40;;
1204;SDS011;592;48.764;9.174;2022-08-21T14:08:25;8.27;;;4.90;;
1204;SDS011;592;48.764;9.174;2022-08-21T14:10:57;7.40;;;4.73;;
1204;SDS011;592;48.764;9.174;2022-08-21T14:13:36;8.47;;;4.90;;
1204;SDS011;592;48.764;9.174;2022-08-21T14:16:11;10.47;;;4.70;;
1204;SDS011;592;48.764;9.174;2022-08-21T14:18:44;8.67;;;4.20;;
1204;SDS011;592;48.764;9.174;2022-08-21T14:21:34;11.83;;;5.10;;
1204;SDS011;592;48.764;9.174;2022-08-21T14:24:04;9.33;;;4.50;;
1204;SDS011;592;48.764;9.174;2022-08-21T14:26:36;8.00;;;5.37;;
1204;SDS011;592;48.764;9.174;2022-08-21T14:29:10;7.23;;;4.20;;
1204;SDS011;592;48.764;9.174;2022-08-21T14:31:40;11.50;;;5.17;;
1204;SDS011;592;48.764;9.174;2022-08-21T14:34:09;6.30;;;4.33;;
1204;SDS011;592;48.764;9.174;2022-08-21T14:36:38;16.20;;;6.10;;
1204;SDS011;592;48.764;9.174;2022-08-21T14:39:05;8.23;;;4.53;;
1204;SDS011;592;48.764;9.174;2022-08-21T14:41:31;8.90;;;4.77;;
1204;SDS011;592;48.764;9.174;2022-08-21T14:44:00;6.60;;;4.50;;
1204;SDS011;592;48.764;9.174;2022-08-21T14:46:28;8.43;;;5.10;;
1204;SDS011;592;48.764;9.174;2022-08-21T14:48:57;10.17;;;5.20;;
1204;SDS011;592;48.764;9.174;2022-08-21T14:51:24;8.27;;;4.80;;
1204;SDS011;592;48.764;9.174;2022-08-21T14:53:50;7.80;;;4.27;;
1204;SDS011;592;48.764;9.174;2022-08-21T14:56:17;7.50;;;4.70;;
1204;SDS011;592;48.764;9.174;2022-08-21T14:58:45;7.00;;;4.43;;
1204;SDS011;592;48.764;9.174;2022-08-21T15:01:16;9.43;;;4.83;;
1204;SDS011;592;48.764;9.174;2022-08-21T15:03:44;7.47;;;4.77;;
1204;SDS011;592;48.764;9.174;2022-08-21T15:06:13;8.40;;;4.93;;
1204;SDS011;592;48.764;9.174;2022-08-21T15:08:41;9.13;;;4.40;;
1204;SDS011;592;48.764;9.174;2022-08-21T15:11:08;7.50;;;4.70;;
1204;SDS011;592;48.764;9.174;2022-08-21T15:13:39;6.87;;;4.17;;
1204;SDS011;592;48.764;9.174;2022-08-21T15:16:07;9.23;;;5.30;;
1204;SDS011;592;48.764;9.174;2022-08-21T15:18:37;8.03;;;4.87;;
1204;SDS011;592;48.764;9.174;2022-08-21T15:21:04;7.47;;;4.30;;
1204;SDS011;592;48.764;9.174;2022-08-21T15:23:31;11.43;;;4.13;;
1204;SDS011;592;48.764;9.174;2022-08-21T15:25:58;8.67;;;4.57;;
1204;SDS011;592;48.764;9.174;2022-08-21T15:28:25;6.17;;;4.00;;
1204;SDS011;592;48.764;9.174;2022-08-21T15:30:52;8.43;;;4.90;;
1204;SDS011;592;48.764;9.174;2022-08-21T15:33:19;6.90;;;4.70;;
1204;SDS011;592;48.764;9.174;2022-08-21T15:35:47;7.13;;;4.53;;
1204;SDS011;592;48.764;9.174;2022-08-21T15:38:14;7.23;;;4.37;;
1204;SDS011;592;48.764;9.174;2022-08-21T15:40:42;9.90;;;4.80;;
1204;SDS011;592;48.764;9.174;2022-08-21T15:43:12;6.93;;;4.77;;
1204;SDS011;592;48.764;9.174;2022-08-21T15:45:47;7.60;;;4.50;;